createdAt,value
2023-03-27T00:03:57.543Z,6.19
2023-03-27T00:09:07.264Z,6.15
2023-03-27T00:14:08.066Z,6.13
2023-03-27T00:19:05.085Z,6.11
2023-03-27T00:24:05.227Z,6.1
2023-03-27T00:29:05.641Z,6.09
2023-03-27T00:34:02.713Z,6.06
2023-03-27T00:39:02.832Z,6.04
2023-03-27T00:44:03.437Z,6.02
2023-03-27T00:48:50.288Z,5.99
2023-03-27T00:53:50.350Z,5.98
2023-03-27T00:58:49.828Z,5.94
2023-03-27T01:03:50.946Z,5.89
2023-03-27T01:08:47.394Z,5.81
2023-03-27T01:13:47.937Z,5.76
2023-03-27T01:18:46.756Z,5.65
2023-03-27T01:24:00.352Z,5.54
2023-03-27T01:28:44.455Z,5.45
2023-03-27T01:33:44.077Z,5.34
2023-03-27T01:38:43.382Z,5.26
2023-03-27T01:43:43.113Z,5.22
2023-03-27T01:48:42.625Z,5.19
2023-03-27T01:53:42.247Z,5.18
2023-03-27T01:58:42.327Z,5.12
2023-03-27T02:03:42.134Z,5.06
2023-03-27T02:08:42.772Z,4.98
2023-03-27T02:13:39.472Z,4.92
2023-03-27T02:18:38.959Z,4.87
2023-03-27T02:23:38.628Z,4.83
2023-03-27T02:28:38.106Z,4.78
2023-03-27T02:33:37.597Z,4.69
2023-03-27T02:38:37.689Z,4.66
2023-03-27T02:43:37.297Z,4.66
2023-03-27T02:48:38.774Z,4.66
2023-03-27T02:53:35.049Z,4.67
2023-03-27T02:58:35.035Z,4.6
2023-03-27T03:05:07.780Z,4.53
2023-03-27T03:10:04.899Z,4.42
2023-03-27T03:15:04.769Z,4.35
2023-03-27T03:20:06.507Z,4.25
2023-03-27T03:25:03.813Z,4.19
2023-03-27T03:30:03.031Z,4.09
2023-03-27T03:35:03.185Z,3.95
2023-03-27T03:39:50.692Z,3.75
2023-03-27T03:44:50.392Z,3.54
2023-03-27T03:49:49.738Z,3.36
2023-03-27T03:54:50.463Z,3.22
2023-03-27T03:59:13.753Z,3.18
2023-03-27T04:04:13.724Z,3.08
2023-03-27T04:09:13.060Z,2.96
2023-03-27T04:14:12.873Z,2.88
2023-03-27T04:19:10.370Z,2.76
2023-03-27T04:24:10.075Z,2.64
2023-03-27T04:29:09.296Z,2.53
2023-03-27T04:34:08.984Z,2.45
2023-03-27T04:39:08.363Z,2.41
2023-03-27T04:44:08.205Z,2.42
2023-03-27T04:49:08.404Z,2.46
2023-03-27T04:54:08.063Z,2.5
2023-03-27T04:59:05.806Z,2.55
2023-03-27T05:04:02.725Z,2.58
2023-03-27T05:09:02.463Z,2.59
2023-03-27T05:14:03.865Z,2.59
2023-03-27T05:18:50.436Z,2.62
2023-03-27T05:23:50.466Z,2.6
2023-03-27T05:28:49.856Z,2.61
2023-03-27T05:33:48.562Z,2.61
2023-03-27T05:38:48.278Z,2.59
2023-03-27T05:43:50.737Z,2.61
2023-03-27T05:48:48.681Z,2.61
2023-03-27T05:53:49.619Z,2.59
2023-03-27T05:58:46.145Z,2.61
2023-03-27T06:03:46.300Z,2.66
2023-03-27T06:08:45.561Z,2.76
2023-03-27T06:13:45.755Z,2.85
2023-03-27T06:18:43.383Z,2.97
2023-03-27T06:23:43.162Z,3.05
2023-03-27T06:28:42.580Z,3.15
2023-03-27T06:33:42.392Z,3.2
2023-03-27T06:38:42.007Z,3.26
2023-03-27T06:43:41.642Z,3.31
2023-03-27T06:48:42.152Z,3.46
2023-03-27T06:53:41.651Z,3.67
2023-03-27T06:58:42.788Z,3.69
2023-03-27T07:03:39.459Z,3.69
2023-03-27T07:08:39.632Z,3.88
2023-03-27T07:13:39.727Z,4.04
2023-03-27T07:18:39.302Z,4.01
2023-03-27T07:24:33.340Z,4.02
2023-03-27T07:28:38.829Z,4.16
2023-03-27T07:33:39.971Z,4.37
2023-03-27T07:38:37.895Z,4.6
2023-03-27T07:43:38.656Z,4.88
2023-03-27T07:48:38.705Z,4.96
2023-03-27T07:53:38.135Z,5
2023-03-27T07:58:38.003Z,5.06
2023-03-27T08:00:25.082Z,5.11
2023-03-27T08:10:00.520Z,5.24
2023-03-27T08:15:07.512Z,5.22
2023-03-27T08:20:07.114Z,5.18
2023-03-27T08:25:08.818Z,5.14
2023-03-27T08:30:06.091Z,5.19
2023-03-27T08:35:06.159Z,5.35
2023-03-27T08:40:06.790Z,5.62
2023-03-27T08:50:03.553Z,5.85
2023-03-27T08:55:04.329Z,6.79
2023-03-27T08:59:10.879Z,7.09
2023-03-27T09:04:11.364Z,7.24
2023-03-27T09:09:10.941Z,6.9
2023-03-27T09:14:11.954Z,6.97
2023-03-27T09:19:08.457Z,7.27
2023-03-27T09:24:08.425Z,6.61
2023-03-27T09:29:07.549Z,6.1
2023-03-27T09:34:07.263Z,6.08
2023-03-27T09:39:05.026Z,6.32
2023-03-27T09:44:05.003Z,6.38
2023-03-27T09:49:04.447Z,6.85
2023-03-27T09:54:04.445Z,7.22
2023-03-27T09:59:01.813Z,7.59
2023-03-27T10:04:02.334Z,7.75
2023-03-27T10:09:02.817Z,7.83
2023-03-27T10:14:03.450Z,7.75
2023-03-27T10:18:49.878Z,7.37
2023-03-27T10:23:49.775Z,6.91
2023-03-27T10:28:49.167Z,6.82
2023-03-27T10:33:46.573Z,6.63
2023-03-27T10:38:46.653Z,7.44
2023-03-27T10:43:46.416Z,8.22
2023-03-27T10:48:46.152Z,8.34
2023-03-27T10:53:45.818Z,8.54
2023-03-27T10:58:45.792Z,9.29
2023-03-27T11:03:45.762Z,9.09
2023-03-27T11:08:45.078Z,8.02
2023-03-27T11:13:45.676Z,7.3
2023-03-27T11:18:42.004Z,6.98
2023-03-27T11:23:41.773Z,6.85
2023-03-27T11:28:40.800Z,6.85
2023-03-27T11:33:40.622Z,7.08
2023-03-27T11:38:38.125Z,7
2023-03-27T11:43:38.003Z,6.96
2023-03-27T11:48:37.432Z,6.98
2023-03-27T11:53:37.287Z,7.02
2023-03-27T11:58:37.194Z,7.63
2023-03-27T12:00:24.085Z,7.6
2023-03-27T12:05:07.700Z,7.24
2023-03-27T12:10:08.178Z,7.38
2023-03-27T12:15:05.516Z,7.83
2023-03-27T12:20:05.457Z,7.93
2023-03-27T12:25:07.182Z,7.54
2023-03-27T12:30:03.679Z,6.94
2023-03-27T12:35:03.163Z,6.59
2023-03-27T12:40:03.167Z,6.41
2023-03-27T12:44:50.813Z,6.19
2023-03-27T12:49:50.510Z,5.76
2023-03-27T12:54:49.508Z,5.14
2023-03-27T12:59:07.048Z,4.88
2023-03-27T13:04:05.164Z,5.13
2023-03-27T13:09:04.784Z,6.09
2023-03-27T13:14:05.466Z,7.19
2023-03-27T13:19:05.002Z,7.84
2023-03-27T13:24:07.051Z,7.9
2023-03-27T13:29:05.325Z,7.48
2023-03-27T13:34:06.131Z,8.03
2023-03-27T13:39:03.365Z,8.3
2023-03-27T13:44:03.626Z,8.52
2023-03-27T13:49:02.840Z,8.84
2023-03-27T13:54:03.256Z,8.68
2023-03-27T13:59:03.014Z,7.67
2023-03-27T14:04:03.390Z,7.18
2023-03-27T14:08:50.174Z,7.27
2023-03-27T14:13:50.204Z,7.33
2023-03-27T14:18:49.790Z,6.87
2023-03-27T14:23:51.088Z,6.37
2023-03-27T14:28:46.753Z,5.9
2023-03-27T14:33:46.370Z,4.96
2023-03-27T14:38:45.319Z,4.34
2023-03-27T14:43:45.326Z,4.19
2023-03-27T14:48:42.699Z,4.27
2023-03-27T14:53:42.466Z,4.4
2023-03-27T14:58:41.299Z,4.65
2023-03-27T15:03:41.214Z,5.24
2023-03-27T15:08:40.391Z,5.7
2023-03-27T15:13:40.232Z,5.74
2023-03-27T15:18:39.991Z,5.72
2023-03-27T15:23:39.998Z,5.68
2023-03-27T15:28:37.723Z,5.62
2023-03-27T15:33:37.514Z,5.44
2023-03-27T15:38:36.693Z,5.29
2023-03-27T15:43:36.308Z,5.26
2023-03-27T15:48:35.649Z,5.87
2023-03-27T15:53:35.520Z,7.01
2023-03-27T15:58:35.041Z,8
2023-03-27T16:20:07.499Z,9.3
2023-03-27T16:35:06.024Z,8.37
2023-03-27T16:55:02.547Z,8.33
2023-03-27T16:59:14.769Z,7.67
2023-03-27T17:04:14.313Z,7.13
2023-03-27T17:09:13.705Z,6.83
2023-03-27T17:14:13.410Z,6.66
2023-03-27T17:19:12.302Z,6.3
2023-03-27T17:24:11.701Z,6.03
2023-03-27T17:29:12.645Z,5.96
2023-03-27T17:34:08.955Z,5.93
2023-03-27T17:39:08.810Z,5.89
2023-03-27T17:44:08.247Z,5.84
2023-03-27T17:49:07.943Z,5.77
2023-03-27T17:54:05.587Z,5.51
2023-03-27T17:59:01.790Z,5.19
2023-03-27T18:04:02.447Z,5
2023-03-27T18:08:51.631Z,4.88
2023-03-27T18:13:48.126Z,4.8
2023-03-27T18:18:48.063Z,4.71
2023-03-27T18:23:47.487Z,4.63
2023-03-27T18:28:47.237Z,4.57
2023-03-27T18:33:46.010Z,4.57
2023-03-27T18:38:45.064Z,4.55
2023-03-27T18:43:44.365Z,4.56
2023-03-27T18:48:45.502Z,4.57
2023-03-27T18:53:42.165Z,4.55
2023-03-27T18:58:42.217Z,4.52
2023-03-27T19:05:03.930Z,4.48
2023-03-27T19:10:01.235Z,4.53
2023-03-27T19:15:06.769Z,4.55
2023-03-27T19:20:00.183Z,4.57
2023-03-27T19:24:59.917Z,4.53
2023-03-27T19:29:59.315Z,4.44
2023-03-27T19:34:59.062Z,4.37
2023-03-27T19:39:58.333Z,4.27
2023-03-27T19:45:08.015Z,4.16
2023-03-27T19:50:06.888Z,4.07
2023-03-27T19:55:07.191Z,3.99
2023-03-27T19:59:31.001Z,3.95
2023-03-27T20:04:27.818Z,3.94
2023-03-27T20:09:26.067Z,3.95
2023-03-27T20:14:26.285Z,3.94
2023-03-27T20:19:26.882Z,3.91
2023-03-27T20:24:26.777Z,3.9
2023-03-27T20:29:23.242Z,3.86
2023-03-27T20:34:23.266Z,3.79
2023-03-27T20:39:22.483Z,3.7
2023-03-27T20:44:22.344Z,3.62
2023-03-27T20:49:24.704Z,3.53
2023-03-27T20:54:19.973Z,3.48
2023-03-27T20:59:07.557Z,3.44
2023-03-27T21:04:09.161Z,3.4
2023-03-27T21:14:05.962Z,3.19
2023-03-27T21:19:06.235Z,3.01
2023-03-27T21:24:04.189Z,2.88
2023-03-27T21:29:03.598Z,2.82
2023-03-27T21:34:03.737Z,2.8
2023-03-27T21:39:02.691Z,2.89
2023-03-27T21:44:03.115Z,2.91
2023-03-27T21:49:02.904Z,2.99
2023-03-27T21:53:50.405Z,3.15
2023-03-27T21:58:50.272Z,3.23
2023-03-27T22:03:49.350Z,3.22
2023-03-27T22:08:49.086Z,3.22
2023-03-27T22:13:48.344Z,3.21
2023-03-27T22:18:48.158Z,3.22
2023-03-27T22:23:48.441Z,3.24
2023-03-27T22:28:47.999Z,3.25
2023-03-27T22:33:49.036Z,3.27
2023-03-27T22:38:45.590Z,3.26
2023-03-27T22:43:47.312Z,3.25
2023-03-27T22:48:44.915Z,3.26
2023-03-27T22:53:44.824Z,3.24
2023-03-27T22:58:42.584Z,3.17
2023-03-27T23:03:42.566Z,3.1
2023-03-27T23:08:41.699Z,3.02
2023-03-27T23:13:41.329Z,2.92
2023-03-27T23:18:40.720Z,2.84
2023-03-27T23:23:40.542Z,2.8
2023-03-27T23:28:40.308Z,2.76
2023-03-27T23:33:40.153Z,2.68
2023-03-27T23:38:37.648Z,2.56
2023-03-27T23:43:37.302Z,2.44
2023-03-27T23:48:36.590Z,2.38
2023-03-27T23:53:36.312Z,2.29
2023-03-27T23:58:35.508Z,2.23
